This is the latest recevied weather packets stored in our database for station/object EA5CEE. If no packets are shown the sender has not sent any weather packets the latest 10 day(s).
| Time | Temp. | Humidity | Pressure | Rain* | Wind** | Luminosity | Snow |
|---|---|---|---|---|---|---|---|
| 1777818630 | 19.44° C | 76% | 1011.7 hPa | 0 mm | - | - | - |
| 1777817726 | 19.44° C | 75% | 1011.6 hPa | 0 mm | - | - | - |
| 1777816831 | 19.44° C | 75% | 1011.8 hPa | 0 mm | - | - | - |
| 1777815923 | 19.44° C | 77% | 1011.9 hPa | 0 mm | - | - | - |
| 1777815028 | 19.44° C | 76% | 1012.1 hPa | 0 mm | - | - | - |
| 1777814120 | 19.44° C | 77% | 1012.2 hPa | 0 mm | - | - | - |
| 1777813217 | 20° C | 76% | 1012.4 hPa | 0 mm | - | - | - |
| 1777812315 | 20° C | 74% | 1012.6 hPa | 0 mm | - | - | - |
| 1777811413 | 20° C | 75% | 1012.7 hPa | 0 mm | - | - | - |
| 1777810510 | 19.44° C | 78% | 1012.9 hPa | 0 mm | - | - | - |
| 1777809625 | 18.89° C | 77% | 1013 hPa | 0 mm | - | - | - |
| 1777808709 | 18.89° C | 74% | 1013.2 hPa | 0 mm | - | - | - |
| 1777807810 | 19.44° C | 74% | 1013.5 hPa | 0 mm | - | - | - |
| 1777806906 | 18.89° C | 78% | 1013.6 hPa | 0 mm | - | - | - |
| 1777806006 | 18.89° C | 78% | 1013.7 hPa | 0 mm | - | - | - |
| 1777805104 | 19.44° C | 77% | 1013.7 hPa | 0 mm | - | - | - |
| 1777804260 | 18.89° C | 81% | 1014 hPa | 0 mm | - | - | - |
| 1777803356 | 18.33° C | 89% | 1014.2 hPa | 0 mm | - | - | - |
| 1777802456 | 17.78° C | 91% | 1014.3 hPa | 0 mm | - | - | - |
| 1777801557 | 17.78° C | 92% | 1014.5 hPa | 0 mm | - | - | - |
| 1777800654 | 17.78° C | 91% | 1014.6 hPa | 0 mm | - | - | - |
| 1777799772 | 17.78° C | 91% | 1014.5 hPa | 0 mm | - | - | - |
| 1777798851 | 17.78° C | 91% | 1014.8 hPa | 0 mm | - | - | - |
| 1777797965 | 17.78° C | 91% | 1014.7 hPa | 0 mm | - | - | - |
| 1777797049 | 17.78° C | 92% | 1014.6 hPa | 0 mm | - | - | - |
* Rain latest hour (hover to see other rain measurements)
** Current wind speed in m/s (hover to see current wind gust speed)